sensor_id;sensor_type;location;lat;lon;timestamp;P1;durP1;ratioP1;P2;durP2;ratioP2
45618;SDS011;31343;47.520;19.144;2023-02-28T00:01:12;15.13;;;7.13;;
45618;SDS011;31343;47.520;19.144;2023-02-28T00:03:38;15.15;;;7.70;;
45618;SDS011;31343;47.520;19.144;2023-02-28T00:06:04;13.88;;;8.15;;
45618;SDS011;31343;47.520;19.144;2023-02-28T00:08:31;12.70;;;7.63;;
45618;SDS011;31343;47.520;19.144;2023-02-28T00:11:00;17.73;;;8.50;;
45618;SDS011;31343;47.520;19.144;2023-02-28T00:13:27;19.52;;;8.50;;
45618;SDS011;31343;47.520;19.144;2023-02-28T00:16:01;16.35;;;8.95;;
45618;SDS011;31343;47.520;19.144;2023-02-28T00:18:29;13.35;;;8.40;;
45618;SDS011;31343;47.520;19.144;2023-02-28T00:20:55;17.27;;;9.80;;
45618;SDS011;31343;47.520;19.144;2023-02-28T00:23:20;17.50;;;9.77;;
45618;SDS011;31343;47.520;19.144;2023-02-28T00:25:46;13.57;;;8.55;;
45618;SDS011;31343;47.520;19.144;2023-02-28T00:28:12;15.25;;;9.20;;
45618;SDS011;31343;47.520;19.144;2023-02-28T00:30:38;18.48;;;9.00;;
45618;SDS011;31343;47.520;19.144;2023-02-28T00:33:04;15.10;;;9.98;;
45618;SDS011;31343;47.520;19.144;2023-02-28T00:35:29;17.58;;;8.93;;
45618;SDS011;31343;47.520;19.144;2023-02-28T00:37:55;20.70;;;9.30;;
45618;SDS011;31343;47.520;19.144;2023-02-28T00:40:21;17.27;;;8.35;;
45618;SDS011;31343;47.520;19.144;2023-02-28T00:42:46;17.25;;;8.85;;
45618;SDS011;31343;47.520;19.144;2023-02-28T00:45:12;14.90;;;9.15;;
45618;SDS011;31343;47.520;19.144;2023-02-28T00:47:38;14.68;;;9.38;;
45618;SDS011;31343;47.520;19.144;2023-02-28T00:50:04;18.13;;;9.20;;
45618;SDS011;31343;47.520;19.144;2023-02-28T00:52:30;17.05;;;8.93;;
45618;SDS011;31343;47.520;19.144;2023-02-28T00:54:56;14.63;;;8.35;;
45618;SDS011;31343;47.520;19.144;2023-02-28T00:57:22;14.80;;;8.20;;
45618;SDS011;31343;47.520;19.144;2023-02-28T00:59:47;19.65;;;8.68;;
45618;SDS011;31343;47.520;19.144;2023-02-28T01:02:13;15.50;;;9.60;;
45618;SDS011;31343;47.520;19.144;2023-02-28T01:04:39;13.35;;;9.45;;
45618;SDS011;31343;47.520;19.144;2023-02-28T01:07:05;23.05;;;10.07;;
45618;SDS011;31343;47.520;19.144;2023-02-28T01:09:30;17.50;;;9.15;;
45618;SDS011;31343;47.520;19.144;2023-02-28T01:11:56;14.00;;;8.48;;
45618;SDS011;31343;47.520;19.144;2023-02-28T01:14:22;18.35;;;8.48;;
45618;SDS011;31343;47.520;19.144;2023-02-28T01:16:48;19.65;;;8.98;;
45618;SDS011;31343;47.520;19.144;2023-02-28T01:19:13;14.45;;;8.27;;
45618;SDS011;31343;47.520;19.144;2023-02-28T01:21:39;13.75;;;9.20;;
45618;SDS011;31343;47.520;19.144;2023-02-28T01:24:05;17.38;;;8.95;;
45618;SDS011;31343;47.520;19.144;2023-02-28T01:26:31;14.05;;;8.45;;
45618;SDS011;31343;47.520;19.144;2023-02-28T01:28:57;16.50;;;9.15;;
45618;SDS011;31343;47.520;19.144;2023-02-28T01:31:23;14.30;;;8.05;;
45618;SDS011;31343;47.520;19.144;2023-02-28T01:33:49;16.92;;;9.80;;
45618;SDS011;31343;47.520;19.144;2023-02-28T01:36:19;17.77;;;9.73;;
45618;SDS011;31343;47.520;19.144;2023-02-28T01:38:47;16.27;;;9.27;;
45618;SDS011;31343;47.520;19.144;2023-02-28T01:41:23;21.75;;;10.32;;
45618;SDS011;31343;47.520;19.144;2023-02-28T01:44:02;15.85;;;9.32;;
45618;SDS011;31343;47.520;19.144;2023-02-28T01:46:46;17.55;;;9.40;;
45618;SDS011;31343;47.520;19.144;2023-02-28T01:49:13;15.50;;;9.00;;
45618;SDS011;31343;47.520;19.144;2023-02-28T01:51:45;16.60;;;9.25;;
45618;SDS011;31343;47.520;19.144;2023-02-28T01:54:18;16.77;;;9.55;;
45618;SDS011;31343;47.520;19.144;2023-02-28T01:56:55;18.05;;;10.07;;
45618;SDS011;31343;47.520;19.144;2023-02-28T01:59:27;17.83;;;9.82;;
45618;SDS011;31343;47.520;19.144;2023-02-28T02:02:05;17.23;;;8.90;;
45618;SDS011;31343;47.520;19.144;2023-02-28T02:04:38;18.25;;;10.10;;
45618;SDS011;31343;47.520;19.144;2023-02-28T02:07:09;15.45;;;9.18;;
45618;SDS011;31343;47.520;19.144;2023-02-28T02:09:36;13.60;;;8.38;;
45618;SDS011;31343;47.520;19.144;2023-02-28T02:12:06;17.17;;;9.98;;
45618;SDS011;31343;47.520;19.144;2023-02-28T02:14:51;16.45;;;9.45;;
45618;SDS011;31343;47.520;19.144;2023-02-28T02:17:44;15.88;;;8.65;;
45618;SDS011;31343;47.520;19.144;2023-02-28T02:23:31;18.42;;;9.57;;
45618;SDS011;31343;47.520;19.144;2023-02-28T02:42:28;14.88;;;10.52;;
45618;SDS011;31343;47.520;19.144;2023-02-28T02:45:14;15.05;;;10.23;;
45618;SDS011;31343;47.520;19.144;2023-02-28T02:47:49;17.40;;;9.40;;
45618;SDS011;31343;47.520;19.144;2023-02-28T02:50:21;16.85;;;9.05;;
45618;SDS011;31343;47.520;19.144;2023-02-28T02:52:51;18.48;;;9.13;;
45618;SDS011;31343;47.520;19.144;2023-02-28T02:55:20;14.52;;;8.25;;
45618;SDS011;31343;47.520;19.144;2023-02-28T02:57:51;14.98;;;8.85;;
45618;SDS011;31343;47.520;19.144;2023-02-28T03:00:26;18.45;;;8.85;;
45618;SDS011;31343;47.520;19.144;2023-02-28T03:02:59;16.23;;;9.20;;
45618;SDS011;31343;47.520;19.144;2023-02-28T03:05:30;17.63;;;9.32;;
45618;SDS011;31343;47.520;19.144;2023-02-28T03:08:12;14.38;;;8.88;;
45618;SDS011;31343;47.520;19.144;2023-02-28T03:10:48;16.13;;;8.30;;
45618;SDS011;31343;47.520;19.144;2023-02-28T03:16:16;15.68;;;7.65;;
45618;SDS011;31343;47.520;19.144;2023-02-28T03:21:39;15.30;;;8.90;;
45618;SDS011;31343;47.520;19.144;2023-02-28T03:27:21;15.32;;;8.07;;
45618;SDS011;31343;47.520;19.144;2023-02-28T03:30:03;12.00;;;7.40;;
45618;SDS011;31343;47.520;19.144;2023-02-28T03:32:43;14.98;;;7.30;;
45618;SDS011;31343;47.520;19.144;2023-02-28T03:35:32;14.00;;;7.57;;
45618;SDS011;31343;47.520;19.144;2023-02-28T03:38:46;13.23;;;8.07;;
45618;SDS011;31343;47.520;19.144;2023-02-28T03:41:24;11.75;;;6.28;;
45618;SDS011;31343;47.520;19.144;2023-02-28T03:43:55;12.52;;;7.22;;
45618;SDS011;31343;47.520;19.144;2023-02-28T03:46:27;16.23;;;7.25;;
45618;SDS011;31343;47.520;19.144;2023-02-28T03:51:38;9.60;;;6.05;;
45618;SDS011;31343;47.520;19.144;2023-02-28T03:54:08;10.90;;;6.72;;
45618;SDS011;31343;47.520;19.144;2023-02-28T03:56:48;12.68;;;6.32;;
45618;SDS011;31343;47.520;19.144;2023-02-28T04:01:50;11.40;;;6.95;;
45618;SDS011;31343;47.520;19.144;2023-02-28T04:04:17;13.27;;;6.72;;
45618;SDS011;31343;47.520;19.144;2023-02-28T04:06:43;10.02;;;6.38;;
45618;SDS011;31343;47.520;19.144;2023-02-28T04:09:10;12.32;;;6.93;;
45618;SDS011;31343;47.520;19.144;2023-02-28T04:11:40;13.10;;;6.63;;
45618;SDS011;31343;47.520;19.144;2023-02-28T04:14:09;11.38;;;6.07;;
45618;SDS011;31343;47.520;19.144;2023-02-28T04:16:36;11.18;;;7.03;;
45618;SDS011;31343;47.520;19.144;2023-02-28T04:19:04;9.73;;;6.13;;
45618;SDS011;31343;47.520;19.144;2023-02-28T04:21:32;13.45;;;6.85;;
45618;SDS011;31343;47.520;19.144;2023-02-28T04:24:04;13.75;;;7.50;;
45618;SDS011;31343;47.520;19.144;2023-02-28T04:26:34;12.38;;;6.97;;
45618;SDS011;31343;47.520;19.144;2023-02-28T04:29:02;14.93;;;7.28;;
45618;SDS011;31343;47.520;19.144;2023-02-28T04:31:30;10.50;;;5.93;;
45618;SDS011;31343;47.520;19.144;2023-02-28T04:33:56;14.02;;;6.63;;
45618;SDS011;31343;47.520;19.144;2023-02-28T04:36:31;14.82;;;7.15;;
45618;SDS011;31343;47.520;19.144;2023-02-28T04:38:58;11.98;;;6.80;;
45618;SDS011;31343;47.520;19.144;2023-02-28T04:41:24;13.95;;;7.55;;
45618;SDS011;31343;47.520;19.144;2023-02-28T04:43:54;10.85;;;6.78;;
45618;SDS011;31343;47.520;19.144;2023-02-28T04:46:23;11.40;;;7.20;;
45618;SDS011;31343;47.520;19.144;2023-02-28T04:48:49;11.95;;;6.22;;
45618;SDS011;31343;47.520;19.144;2023-02-28T04:51:15;9.30;;;5.40;;
45618;SDS011;31343;47.520;19.144;2023-02-28T04:53:43;10.23;;;5.78;;
45618;SDS011;31343;47.520;19.144;2023-02-28T04:56:13;10.98;;;5.57;;
45618;SDS011;31343;47.520;19.144;2023-02-28T04:58:43;9.63;;;5.32;;
45618;SDS011;31343;47.520;19.144;2023-02-28T05:01:23;8.55;;;5.68;;
45618;SDS011;31343;47.520;19.144;2023-02-28T05:03:59;10.18;;;5.97;;
45618;SDS011;31343;47.520;19.144;2023-02-28T05:06:28;10.57;;;6.43;;
45618;SDS011;31343;47.520;19.144;2023-02-28T05:08:55;12.73;;;6.63;;
45618;SDS011;31343;47.520;19.144;2023-02-28T05:11:28;10.35;;;5.60;;
45618;SDS011;31343;47.520;19.144;2023-02-28T05:14:00;10.48;;;5.82;;
45618;SDS011;31343;47.520;19.144;2023-02-28T05:16:27;11.95;;;6.20;;
45618;SDS011;31343;47.520;19.144;2023-02-28T05:18:52;9.05;;;5.85;;
45618;SDS011;31343;47.520;19.144;2023-02-28T05:21:35;11.55;;;5.40;;
45618;SDS011;31343;47.520;19.144;2023-02-28T05:24:06;9.95;;;6.03;;
45618;SDS011;31343;47.520;19.144;2023-02-28T05:26:36;12.13;;;5.75;;
45618;SDS011;31343;47.520;19.144;2023-02-28T05:29:04;11.98;;;5.78;;
45618;SDS011;31343;47.520;19.144;2023-02-28T05:31:30;8.70;;;5.00;;
45618;SDS011;31343;47.520;19.144;2023-02-28T05:33:56;9.98;;;5.50;;
45618;SDS011;31343;47.520;19.144;2023-02-28T05:36:22;9.10;;;5.05;;
45618;SDS011;31343;47.520;19.144;2023-02-28T05:38:49;12.32;;;5.70;;
45618;SDS011;31343;47.520;19.144;2023-02-28T05:41:16;10.13;;;5.88;;
45618;SDS011;31343;47.520;19.144;2023-02-28T05:43:44;10.65;;;5.78;;
45618;SDS011;31343;47.520;19.144;2023-02-28T05:46:11;10.52;;;5.93;;
45618;SDS011;31343;47.520;19.144;2023-02-28T05:48:38;11.43;;;5.57;;
45618;SDS011;31343;47.520;19.144;2023-02-28T05:51:05;7.38;;;4.65;;
45618;SDS011;31343;47.520;19.144;2023-02-28T05:53:32;8.02;;;4.55;;
45618;SDS011;31343;47.520;19.144;2023-02-28T05:55:58;9.90;;;4.78;;
45618;SDS011;31343;47.520;19.144;2023-02-28T05:58:24;8.10;;;4.68;;
45618;SDS011;31343;47.520;19.144;2023-02-28T06:01:00;9.82;;;5.45;;
45618;SDS011;31343;47.520;19.144;2023-02-28T06:03:44;9.52;;;5.32;;
45618;SDS011;31343;47.520;19.144;2023-02-28T06:06:10;9.77;;;5.28;;
45618;SDS011;31343;47.520;19.144;2023-02-28T06:08:36;10.27;;;5.20;;
45618;SDS011;31343;47.520;19.144;2023-02-28T06:11:04;10.32;;;5.60;;
45618;SDS011;31343;47.520;19.144;2023-02-28T06:13:31;14.55;;;6.60;;
45618;SDS011;31343;47.520;19.144;2023-02-28T06:16:00;11.57;;;6.65;;
45618;SDS011;31343;47.520;19.144;2023-02-28T06:18:26;13.43;;;6.30;;
45618;SDS011;31343;47.520;19.144;2023-02-28T06:20:55;9.57;;;5.40;;
45618;SDS011;31343;47.520;19.144;2023-02-28T06:23:21;10.52;;;5.72;;
45618;SDS011;31343;47.520;19.144;2023-02-28T06:25:47;9.40;;;4.90;;
45618;SDS011;31343;47.520;19.144;2023-02-28T06:28:13;10.23;;;5.10;;
45618;SDS011;31343;47.520;19.144;2023-02-28T06:30:38;10.52;;;5.45;;
45618;SDS011;31343;47.520;19.144;2023-02-28T06:33:04;8.48;;;5.35;;
45618;SDS011;31343;47.520;19.144;2023-02-28T06:35:30;10.95;;;5.53;;
45618;SDS011;31343;47.520;19.144;2023-02-28T06:37:56;10.65;;;5.88;;
45618;SDS011;31343;47.520;19.144;2023-02-28T06:40:22;9.75;;;4.95;;
45618;SDS011;31343;47.520;19.144;2023-02-28T06:42:48;9.48;;;5.13;;
45618;SDS011;31343;47.520;19.144;2023-02-28T06:45:13;12.63;;;5.28;;
45618;SDS011;31343;47.520;19.144;2023-02-28T06:47:40;12.10;;;5.82;;
45618;SDS011;31343;47.520;19.144;2023-02-28T06:50:09;8.95;;;4.95;;
45618;SDS011;31343;47.520;19.144;2023-02-28T06:52:36;10.18;;;5.47;;
45618;SDS011;31343;47.520;19.144;2023-02-28T06:55:03;9.55;;;5.28;;
45618;SDS011;31343;47.520;19.144;2023-02-28T06:57:31;11.13;;;5.60;;
45618;SDS011;31343;47.520;19.144;2023-02-28T07:00:00;8.18;;;4.95;;
45618;SDS011;31343;47.520;19.144;2023-02-28T07:02:28;10.13;;;4.65;;
45618;SDS011;31343;47.520;19.144;2023-02-28T07:04:54;10.20;;;4.97;;
45618;SDS011;31343;47.520;19.144;2023-02-28T07:07:20;8.75;;;4.57;;
45618;SDS011;31343;47.520;19.144;2023-02-28T07:09:46;10.10;;;4.57;;
45618;SDS011;31343;47.520;19.144;2023-02-28T07:12:12;9.68;;;5.03;;
45618;SDS011;31343;47.520;19.144;2023-02-28T07:14:38;7.75;;;4.57;;
45618;SDS011;31343;47.520;19.144;2023-02-28T07:17:03;8.27;;;5.60;;
45618;SDS011;31343;47.520;19.144;2023-02-28T07:19:32;7.50;;;4.40;;
45618;SDS011;31343;47.520;19.144;2023-02-28T07:21:58;6.80;;;4.18;;
45618;SDS011;31343;47.520;19.144;2023-02-28T07:24:24;9.10;;;5.30;;
45618;SDS011;31343;47.520;19.144;2023-02-28T07:26:53;8.90;;;4.93;;
45618;SDS011;31343;47.520;19.144;2023-02-28T07:29:19;8.52;;;4.68;;
45618;SDS011;31343;47.520;19.144;2023-02-28T07:31:44;8.98;;;4.75;;
45618;SDS011;31343;47.520;19.144;2023-02-28T07:34:11;9.82;;;4.97;;
45618;SDS011;31343;47.520;19.144;2023-02-28T07:36:39;8.45;;;5.28;;
45618;SDS011;31343;47.520;19.144;2023-02-28T07:39:04;8.75;;;4.80;;
45618;SDS011;31343;47.520;19.144;2023-02-28T07:41:30;7.18;;;4.45;;
45618;SDS011;31343;47.520;19.144;2023-02-28T07:44:00;8.23;;;4.88;;
45618;SDS011;31343;47.520;19.144;2023-02-28T07:46:26;9.05;;;4.68;;
45618;SDS011;31343;47.520;19.144;2023-02-28T07:48:52;10.60;;;5.28;;
45618;SDS011;31343;47.520;19.144;2023-02-28T07:51:19;10.18;;;4.68;;
45618;SDS011;31343;47.520;19.144;2023-02-28T07:53:45;8.65;;;4.18;;
45618;SDS011;31343;47.520;19.144;2023-02-28T07:56:11;9.50;;;4.15;;
45618;SDS011;31343;47.520;19.144;2023-02-28T07:58:37;8.05;;;4.75;;
45618;SDS011;31343;47.520;19.144;2023-02-28T08:01:09;9.02;;;5.03;;
45618;SDS011;31343;47.520;19.144;2023-02-28T08:03:36;8.32;;;4.25;;
45618;SDS011;31343;47.520;19.144;2023-02-28T08:06:03;11.13;;;5.05;;
45618;SDS011;31343;47.520;19.144;2023-02-28T08:08:30;11.68;;;5.13;;
45618;SDS011;31343;47.520;19.144;2023-02-28T08:11:00;7.85;;;4.38;;
45618;SDS011;31343;47.520;19.144;2023-02-28T08:13:27;7.40;;;4.20;;
45618;SDS011;31343;47.520;19.144;2023-02-28T08:15:54;7.18;;;4.65;;
45618;SDS011;31343;47.520;19.144;2023-02-28T08:18:21;10.80;;;5.65;;
45618;SDS011;31343;47.520;19.144;2023-02-28T08:20:47;10.85;;;5.40;;
45618;SDS011;31343;47.520;19.144;2023-02-28T08:23:13;16.65;;;6.05;;
45618;SDS011;31343;47.520;19.144;2023-02-28T08:25:39;11.23;;;4.80;;
45618;SDS011;31343;47.520;19.144;2023-02-28T08:28:05;9.80;;;4.35;;
45618;SDS011;31343;47.520;19.144;2023-02-28T08:30:31;7.28;;;4.35;;
45618;SDS011;31343;47.520;19.144;2023-02-28T08:32:57;7.18;;;4.25;;
45618;SDS011;31343;47.520;19.144;2023-02-28T08:35:23;7.50;;;4.10;;
45618;SDS011;31343;47.520;19.144;2023-02-28T08:37:49;12.57;;;5.05;;
45618;SDS011;31343;47.520;19.144;2023-02-28T08:40:15;7.90;;;4.10;;
45618;SDS011;31343;47.520;19.144;2023-02-28T08:42:46;9.93;;;4.82;;
45618;SDS011;31343;47.520;19.144;2023-02-28T08:45:13;7.40;;;4.13;;
45618;SDS011;31343;47.520;19.144;2023-02-28T08:47:39;7.03;;;3.70;;
45618;SDS011;31343;47.520;19.144;2023-02-28T08:50:06;8.70;;;3.70;;
45618;SDS011;31343;47.520;19.144;2023-02-28T08:52:32;6.43;;;3.17;;
45618;SDS011;31343;47.520;19.144;2023-02-28T08:54:58;7.18;;;4.20;;
45618;SDS011;31343;47.520;19.144;2023-02-28T08:57:24;6.20;;;4.22;;
45618;SDS011;31343;47.520;19.144;2023-02-28T08:59:53;6.45;;;3.42;;
45618;SDS011;31343;47.520;19.144;2023-02-28T09:02:19;8.55;;;4.28;;
45618;SDS011;31343;47.520;19.144;2023-02-28T09:04:45;12.40;;;4.07;;
45618;SDS011;31343;47.520;19.144;2023-02-28T09:07:10;7.32;;;4.40;;
45618;SDS011;31343;47.520;19.144;2023-02-28T09:09:36;6.97;;;4.13;;
45618;SDS011;31343;47.520;19.144;2023-02-28T09:12:02;6.50;;;3.80;;
45618;SDS011;31343;47.520;19.144;2023-02-28T09:14:28;7.78;;;3.70;;
45618;SDS011;31343;47.520;19.144;2023-02-28T09:16:54;5.90;;;3.80;;
45618;SDS011;31343;47.520;19.144;2023-02-28T09:19:20;6.85;;;3.55;;
45618;SDS011;31343;47.520;19.144;2023-02-28T09:21:47;7.03;;;4.13;;
45618;SDS011;31343;47.520;19.144;2023-02-28T09:24:13;8.02;;;3.22;;
45618;SDS011;31343;47.520;19.144;2023-02-28T09:26:40;9.25;;;3.80;;
45618;SDS011;31343;47.520;19.144;2023-02-28T09:29:06;6.97;;;4.25;;
45618;SDS011;31343;47.520;19.144;2023-02-28T09:31:31;6.50;;;3.47;;
45618;SDS011;31343;47.520;19.144;2023-02-28T09:33:58;7.05;;;4.15;;
45618;SDS011;31343;47.520;19.144;2023-02-28T09:36:25;6.15;;;3.47;;
45618;SDS011;31343;47.520;19.144;2023-02-28T09:38:53;7.13;;;3.92;;
45618;SDS011;31343;47.520;19.144;2023-02-28T09:41:23;6.57;;;3.28;;
45618;SDS011;31343;47.520;19.144;2023-02-28T09:43:57;6.53;;;4.05;;
45618;SDS011;31343;47.520;19.144;2023-02-28T09:46:44;7.22;;;4.03;;
45618;SDS011;31343;47.520;19.144;2023-02-28T09:49:16;7.38;;;3.97;;
45618;SDS011;31343;47.520;19.144;2023-02-28T09:54:28;7.07;;;3.78;;
45618;SDS011;31343;47.520;19.144;2023-02-28T10:04:50;5.53;;;3.78;;
45618;SDS011;31343;47.520;19.144;2023-02-28T10:09:49;5.88;;;3.95;;
45618;SDS011;31343;47.520;19.144;2023-02-28T10:12:18;9.07;;;4.32;;
45618;SDS011;31343;47.520;19.144;2023-02-28T10:14:47;8.32;;;4.47;;
45618;SDS011;31343;47.520;19.144;2023-02-28T10:17:17;7.03;;;3.65;;
45618;SDS011;31343;47.520;19.144;2023-02-28T10:19:52;7.28;;;4.30;;
45618;SDS011;31343;47.520;19.144;2023-02-28T10:23:04;6.95;;;3.67;;
45618;SDS011;31343;47.520;19.144;2023-02-28T10:25:49;6.00;;;3.72;;
45618;SDS011;31343;47.520;19.144;2023-02-28T10:28:28;6.28;;;4.20;;
45618;SDS011;31343;47.520;19.144;2023-02-28T10:30:56;5.80;;;4.00;;
45618;SDS011;31343;47.520;19.144;2023-02-28T10:33:24;6.95;;;4.32;;
45618;SDS011;31343;47.520;19.144;2023-02-28T10:35:54;8.93;;;4.10;;
45618;SDS011;31343;47.520;19.144;2023-02-28T10:38:24;7.47;;;4.00;;
45618;SDS011;31343;47.520;19.144;2023-02-28T10:41:13;6.07;;;3.10;;
45618;SDS011;31343;47.520;19.144;2023-02-28T10:43:53;5.78;;;4.30;;
45618;SDS011;31343;47.520;19.144;2023-02-28T10:46:44;10.10;;;4.20;;
45618;SDS011;31343;47.520;19.144;2023-02-28T10:49:14;7.95;;;3.95;;
45618;SDS011;31343;47.520;19.144;2023-02-28T10:51:47;6.38;;;4.10;;
45618;SDS011;31343;47.520;19.144;2023-02-28T10:54:26;5.25;;;3.33;;
45618;SDS011;31343;47.520;19.144;2023-02-28T10:57:06;6.63;;;3.70;;
45618;SDS011;31343;47.520;19.144;2023-02-28T10:59:32;7.28;;;3.75;;
45618;SDS011;31343;47.520;19.144;2023-02-28T11:01:57;7.55;;;4.03;;
45618;SDS011;31343;47.520;19.144;2023-02-28T11:07:04;5.97;;;3.63;;
45618;SDS011;31343;47.520;19.144;2023-02-28T11:09:45;8.82;;;4.15;;
45618;SDS011;31343;47.520;19.144;2023-02-28T11:12:20;6.63;;;4.30;;
45618;SDS011;31343;47.520;19.144;2023-02-28T11:14:56;6.25;;;3.75;;
45618;SDS011;31343;47.520;19.144;2023-02-28T11:17:28;5.97;;;3.42;;
45618;SDS011;31343;47.520;19.144;2023-02-28T11:20:04;6.40;;;3.50;;
45618;SDS011;31343;47.520;19.144;2023-02-28T11:22:36;6.45;;;2.92;;
45618;SDS011;31343;47.520;19.144;2023-02-28T11:25:47;5.95;;;3.17;;
45618;SDS011;31343;47.520;19.144;2023-02-28T11:28:02;7.18;;;4.05;;
45618;SDS011;31343;47.520;19.144;2023-02-28T11:30:35;6.25;;;3.95;;
45618;SDS011;31343;47.520;19.144;2023-02-28T11:35:57;8.48;;;3.40;;
45618;SDS011;31343;47.520;19.144;2023-02-28T11:38:26;5.03;;;3.50;;
45618;SDS011;31343;47.520;19.144;2023-02-28T11:46:47;7.60;;;3.33;;
45618;SDS011;31343;47.520;19.144;2023-02-28T11:49:35;7.20;;;3.17;;
45618;SDS011;31343;47.520;19.144;2023-02-28T11:52:20;5.18;;;3.15;;
45618;SDS011;31343;47.520;19.144;2023-02-28T11:57:42;4.93;;;2.70;;
45618;SDS011;31343;47.520;19.144;2023-02-28T12:08:49;6.10;;;3.60;;
45618;SDS011;31343;47.520;19.144;2023-02-28T12:16:59;8.82;;;3.15;;
45618;SDS011;31343;47.520;19.144;2023-02-28T12:19:45;5.65;;;3.42;;
45618;SDS011;31343;47.520;19.144;2023-02-28T12:27:57;6.15;;;3.40;;
45618;SDS011;31343;47.520;19.144;2023-02-28T12:30:25;5.40;;;3.22;;
45618;SDS011;31343;47.520;19.144;2023-02-28T12:33:06;6.75;;;3.50;;
45618;SDS011;31343;47.520;19.144;2023-02-28T12:35:44;5.75;;;3.22;;
45618;SDS011;31343;47.520;19.144;2023-02-28T12:38:16;4.88;;;3.03;;
45618;SDS011;31343;47.520;19.144;2023-02-28T12:40:51;5.40;;;3.42;;
45618;SDS011;31343;47.520;19.144;2023-02-28T12:43:22;4.78;;;3.00;;
45618;SDS011;31343;47.520;19.144;2023-02-28T12:46:41;5.75;;;3.65;;
45618;SDS011;31343;47.520;19.144;2023-02-28T12:48:42;5.80;;;3.78;;
45618;SDS011;31343;47.520;19.144;2023-02-28T12:51:11;6.00;;;3.83;;
45618;SDS011;31343;47.520;19.144;2023-02-28T12:56:36;5.20;;;3.13;;
45618;SDS011;31343;47.520;19.144;2023-02-28T12:59:05;5.10;;;2.97;;
45618;SDS011;31343;47.520;19.144;2023-02-28T13:04:53;4.93;;;2.97;;
45618;SDS011;31343;47.520;19.144;2023-02-28T13:11:25;6.20;;;3.13;;
45618;SDS011;31343;47.520;19.144;2023-02-28T13:14:05;6.82;;;3.20;;
45618;SDS011;31343;47.520;19.144;2023-02-28T13:19:16;5.05;;;2.85;;
45618;SDS011;31343;47.520;19.144;2023-02-28T13:21:44;7.90;;;2.65;;
45618;SDS011;31343;47.520;19.144;2023-02-28T13:24:10;5.97;;;2.83;;
45618;SDS011;31343;47.520;19.144;2023-02-28T13:29:30;9.20;;;3.90;;
45618;SDS011;31343;47.520;19.144;2023-02-28T13:34:31;12.98;;;4.28;;
45618;SDS011;31343;47.520;19.144;2023-02-28T13:48:14;4.18;;;2.85;;
45618;SDS011;31343;47.520;19.144;2023-02-28T13:50:37;6.72;;;3.25;;
45618;SDS011;31343;47.520;19.144;2023-02-28T14:00:52;6.63;;;3.65;;
45618;SDS011;31343;47.520;19.144;2023-02-28T14:03:43;4.82;;;3.00;;
45618;SDS011;31343;47.520;19.144;2023-02-28T14:06:33;6.60;;;3.53;;
45618;SDS011;31343;47.520;19.144;2023-02-28T14:09:03;6.63;;;3.63;;
45618;SDS011;31343;47.520;19.144;2023-02-28T14:11:41;7.13;;;3.70;;
45618;SDS011;31343;47.520;19.144;2023-02-28T14:14:09;8.38;;;5.20;;
45618;SDS011;31343;47.520;19.144;2023-02-28T14:16:55;6.30;;;4.13;;
45618;SDS011;31343;47.520;19.144;2023-02-28T14:19:26;8.35;;;3.80;;
45618;SDS011;31343;47.520;19.144;2023-02-28T14:31:29;5.72;;;3.53;;
45618;SDS011;31343;47.520;19.144;2023-02-28T14:34:12;10.32;;;3.75;;
45618;SDS011;31343;47.520;19.144;2023-02-28T14:36:43;6.57;;;3.30;;
45618;SDS011;31343;47.520;19.144;2023-02-28T14:39:14;11.52;;;3.63;;
45618;SDS011;31343;47.520;19.144;2023-02-28T14:41:42;5.78;;;3.05;;
45618;SDS011;31343;47.520;19.144;2023-02-28T14:44:19;8.73;;;3.63;;
45618;SDS011;31343;47.520;19.144;2023-02-28T14:46:56;6.95;;;3.17;;
45618;SDS011;31343;47.520;19.144;2023-02-28T14:49:27;7.70;;;3.50;;
45618;SDS011;31343;47.520;19.144;2023-02-28T14:52:12;6.90;;;3.60;;
45618;SDS011;31343;47.520;19.144;2023-02-28T14:54:45;9.50;;;4.43;;
45618;SDS011;31343;47.520;19.144;2023-02-28T14:57:23;7.93;;;3.53;;
45618;SDS011;31343;47.520;19.144;2023-02-28T15:07:38;7.20;;;4.20;;
45618;SDS011;31343;47.520;19.144;2023-02-28T15:10:15;7.85;;;4.65;;
45618;SDS011;31343;47.520;19.144;2023-02-28T15:12:41;8.13;;;4.60;;
45618;SDS011;31343;47.520;19.144;2023-02-28T15:15:17;8.60;;;3.75;;
45618;SDS011;31343;47.520;19.144;2023-02-28T15:17:47;8.57;;;5.13;;
45618;SDS011;31343;47.520;19.144;2023-02-28T15:20:17;10.23;;;5.53;;
45618;SDS011;31343;47.520;19.144;2023-02-28T15:22:44;9.85;;;5.70;;
45618;SDS011;31343;47.520;19.144;2023-02-28T15:25:13;11.05;;;5.70;;
45618;SDS011;31343;47.520;19.144;2023-02-28T15:27:47;9.50;;;5.07;;
45618;SDS011;31343;47.520;19.144;2023-02-28T15:30:17;8.50;;;4.90;;
45618;SDS011;31343;47.520;19.144;2023-02-28T15:32:45;8.70;;;4.80;;
45618;SDS011;31343;47.520;19.144;2023-02-28T15:35:32;10.70;;;4.95;;
45618;SDS011;31343;47.520;19.144;2023-02-28T15:40:28;9.20;;;5.40;;
45618;SDS011;31343;47.520;19.144;2023-02-28T15:43:00;11.98;;;6.25;;
45618;SDS011;31343;47.520;19.144;2023-02-28T15:48:21;8.32;;;4.60;;
45618;SDS011;31343;47.520;19.144;2023-02-28T15:50:49;7.45;;;5.00;;
45618;SDS011;31343;47.520;19.144;2023-02-28T15:53:24;10.20;;;5.25;;
45618;SDS011;31343;47.520;19.144;2023-02-28T15:55:55;8.83;;;4.47;;
45618;SDS011;31343;47.520;19.144;2023-02-28T15:58:25;10.10;;;5.05;;
45618;SDS011;31343;47.520;19.144;2023-02-28T16:01:03;8.35;;;4.72;;
45618;SDS011;31343;47.520;19.144;2023-02-28T16:03:47;10.05;;;5.90;;
45618;SDS011;31343;47.520;19.144;2023-02-28T16:08:52;9.25;;;4.85;;
45618;SDS011;31343;47.520;19.144;2023-02-28T16:11:18;9.38;;;5.22;;
45618;SDS011;31343;47.520;19.144;2023-02-28T16:13:46;8.10;;;4.85;;
45618;SDS011;31343;47.520;19.144;2023-02-28T16:16:20;9.88;;;6.45;;
45618;SDS011;31343;47.520;19.144;2023-02-28T16:18:47;12.70;;;5.80;;
45618;SDS011;31343;47.520;19.144;2023-02-28T16:21:13;12.10;;;6.05;;
45618;SDS011;31343;47.520;19.144;2023-02-28T16:23:39;11.07;;;5.78;;
45618;SDS011;31343;47.520;19.144;2023-02-28T16:26:05;12.77;;;6.35;;
45618;SDS011;31343;47.520;19.144;2023-02-28T16:28:35;10.43;;;4.80;;
45618;SDS011;31343;47.520;19.144;2023-02-28T16:31:04;13.65;;;5.43;;
45618;SDS011;31343;47.520;19.144;2023-02-28T16:33:31;9.23;;;5.15;;
45618;SDS011;31343;47.520;19.144;2023-02-28T16:36:00;9.05;;;5.13;;
45618;SDS011;31343;47.520;19.144;2023-02-28T16:38:25;8.13;;;5.10;;
45618;SDS011;31343;47.520;19.144;2023-02-28T16:40:51;8.82;;;4.95;;
45618;SDS011;31343;47.520;19.144;2023-02-28T16:43:22;12.38;;;5.53;;
45618;SDS011;31343;47.520;19.144;2023-02-28T16:45:50;13.93;;;6.72;;
45618;SDS011;31343;47.520;19.144;2023-02-28T16:48:23;10.82;;;5.47;;
45618;SDS011;31343;47.520;19.144;2023-02-28T16:50:50;10.23;;;5.78;;
45618;SDS011;31343;47.520;19.144;2023-02-28T16:53:16;10.13;;;6.13;;
45618;SDS011;31343;47.520;19.144;2023-02-28T16:55:41;13.98;;;6.63;;
45618;SDS011;31343;47.520;19.144;2023-02-28T16:58:10;12.68;;;7.13;;
45618;SDS011;31343;47.520;19.144;2023-02-28T17:00:41;11.48;;;6.80;;
45618;SDS011;31343;47.520;19.144;2023-02-28T17:03:26;13.52;;;6.38;;
45618;SDS011;31343;47.520;19.144;2023-02-28T17:05:53;13.43;;;6.78;;
45618;SDS011;31343;47.520;19.144;2023-02-28T17:08:19;12.35;;;6.32;;
45618;SDS011;31343;47.520;19.144;2023-02-28T17:10:44;13.90;;;5.95;;